Terminal Aerodrome Forecast
Issued by NWS Sterling, VA

Home | Current Version | Previous Version | Text Only | Print | Product List | Glossary On
Versions: 1 2 3 4 5 6 7 8 9 10 11 12 13 14 15 16 17 18 19 20 21 22 23 24 25 26 27 28
154
FTUS41 KLWX 300834 AAA
TAFBWI
TAF AMD
KBWI 300834Z 3009/3112 04004KT P6SM FEW250
     FM301300 09004KT P6SM BKN080
     FM310200 13008KT P6SM OVC060
     FM310600 13008KT 6SM -RA BR OVC030
     FM310900 12007KT 5SM -RA BR OVC008=

USA.gov is the U.S. government's official web portal to all federal, state and local government web resources and services.